Terminal Aerodrome Forecast
Issued by NWS

Current Version | Previous Version | Text Only | Print | Product List | Glossary On
Versions: 1 2 3 4 5 6 7 8 9 10 11 12 13 14 15 16 17 18 19
000
FTUS44 KEWX 041730
TAFSSF
TAF
KSSF 041730Z 0418/0518 15010KT P6SM BKN040
     FM051000 12005KT P6SM BKN015
     FM051600 15010KT P6SM BKN040=

USA.gov is the U.S. government's official web portal to all federal, state and local government web resources and services.